sensor_id;sensor_type;location;lat;lon;timestamp;P1;durP1;ratioP1;P2;durP2;ratioP2
27566;SDS011;15006;48.584;9.186;2023-04-24T00:00:23;0.60;;;0.40;;
27566;SDS011;15006;48.584;9.186;2023-04-24T00:02:49;1.08;;;0.43;;
27566;SDS011;15006;48.584;9.186;2023-04-24T00:05:16;0.43;;;0.43;;
27566;SDS011;15006;48.584;9.186;2023-04-24T00:07:43;0.93;;;0.50;;
27566;SDS011;15006;48.584;9.186;2023-04-24T00:10:10;0.55;;;0.55;;
27566;SDS011;15006;48.584;9.186;2023-04-24T00:12:37;1.98;;;0.40;;
27566;SDS011;15006;48.584;9.186;2023-04-24T00:15:04;1.60;;;0.52;;
27566;SDS011;15006;48.584;9.186;2023-04-24T00:17:31;1.40;;;0.98;;
27566;SDS011;15006;48.584;9.186;2023-04-24T00:19:57;0.60;;;0.60;;
27566;SDS011;15006;48.584;9.186;2023-04-24T00:22:24;0.50;;;0.50;;
27566;SDS011;15006;48.584;9.186;2023-04-24T00:24:53;0.40;;;0.40;;
27566;SDS011;15006;48.584;9.186;2023-04-24T00:27:20;0.70;;;0.70;;
27566;SDS011;15006;48.584;9.186;2023-04-24T00:29:46;0.40;;;0.40;;
27566;SDS011;15006;48.584;9.186;2023-04-24T00:32:12;2.15;;;0.50;;
27566;SDS011;15006;48.584;9.186;2023-04-24T00:34:39;1.20;;;0.40;;
27566;SDS011;15006;48.584;9.186;2023-04-24T00:37:06;3.30;;;0.50;;
27566;SDS011;15006;48.584;9.186;2023-04-24T00:39:32;3.53;;;0.60;;
27566;SDS011;15006;48.584;9.186;2023-04-24T00:41:58;2.75;;;0.82;;
27566;SDS011;15006;48.584;9.186;2023-04-24T00:44:24;0.65;;;0.60;;
27566;SDS011;15006;48.584;9.186;2023-04-24T00:46:51;0.50;;;0.40;;
27566;SDS011;15006;48.584;9.186;2023-04-24T00:49:20;0.40;;;0.40;;
27566;SDS011;15006;48.584;9.186;2023-04-24T00:51:49;1.08;;;0.40;;
27566;SDS011;15006;48.584;9.186;2023-04-24T00:54:16;3.92;;;1.10;;
27566;SDS011;15006;48.584;9.186;2023-04-24T00:56:43;2.28;;;0.50;;
27566;SDS011;15006;48.584;9.186;2023-04-24T00:59:13;0.70;;;0.50;;
27566;SDS011;15006;48.584;9.186;2023-04-24T01:01:42;0.57;;;0.40;;
27566;SDS011;15006;48.584;9.186;2023-04-24T01:04:11;0.82;;;0.50;;
27566;SDS011;15006;48.584;9.186;2023-04-24T01:06:38;0.80;;;0.60;;
27566;SDS011;15006;48.584;9.186;2023-04-24T01:09:05;2.22;;;0.50;;
27566;SDS011;15006;48.584;9.186;2023-04-24T01:11:35;1.35;;;0.50;;
27566;SDS011;15006;48.584;9.186;2023-04-24T01:14:02;3.15;;;0.60;;
27566;SDS011;15006;48.584;9.186;2023-04-24T01:16:29;3.00;;;0.50;;
27566;SDS011;15006;48.584;9.186;2023-04-24T01:18:55;1.55;;;0.47;;
27566;SDS011;15006;48.584;9.186;2023-04-24T01:21:21;1.30;;;0.57;;
27566;SDS011;15006;48.584;9.186;2023-04-24T01:23:50;0.50;;;0.50;;
27566;SDS011;15006;48.584;9.186;2023-04-24T01:26:17;0.95;;;0.45;;
27566;SDS011;15006;48.584;9.186;2023-04-24T01:28:45;1.15;;;0.52;;
27566;SDS011;15006;48.584;9.186;2023-04-24T01:31:11;0.73;;;0.70;;
27566;SDS011;15006;48.584;9.186;2023-04-24T01:33:38;1.33;;;0.80;;
27566;SDS011;15006;48.584;9.186;2023-04-24T01:36:03;1.90;;;0.50;;
27566;SDS011;15006;48.584;9.186;2023-04-24T01:38:30;0.50;;;0.50;;
27566;SDS011;15006;48.584;9.186;2023-04-24T01:40:56;0.45;;;0.40;;
27566;SDS011;15006;48.584;9.186;2023-04-24T01:43:22;0.40;;;0.40;;
27566;SDS011;15006;48.584;9.186;2023-04-24T01:45:49;0.70;;;0.50;;
27566;SDS011;15006;48.584;9.186;2023-04-24T01:48:15;0.80;;;0.70;;
27566;SDS011;15006;48.584;9.186;2023-04-24T01:50:41;1.20;;;0.70;;
27566;SDS011;15006;48.584;9.186;2023-04-24T01:53:07;0.60;;;0.40;;
27566;SDS011;15006;48.584;9.186;2023-04-24T01:55:34;1.67;;;0.50;;
27566;SDS011;15006;48.584;9.186;2023-04-24T01:57:59;0.50;;;0.40;;
27566;SDS011;15006;48.584;9.186;2023-04-24T02:00:27;3.13;;;0.40;;
27566;SDS011;15006;48.584;9.186;2023-04-24T02:02:53;0.40;;;0.40;;
27566;SDS011;15006;48.584;9.186;2023-04-24T02:05:19;0.60;;;0.38;;
27566;SDS011;15006;48.584;9.186;2023-04-24T02:07:45;0.70;;;0.40;;
27566;SDS011;15006;48.584;9.186;2023-04-24T02:10:11;0.88;;;0.40;;
27566;SDS011;15006;48.584;9.186;2023-04-24T02:12:37;0.55;;;0.50;;
27566;SDS011;15006;48.584;9.186;2023-04-24T02:15:03;1.35;;;0.60;;
27566;SDS011;15006;48.584;9.186;2023-04-24T02:17:30;1.35;;;0.70;;
27566;SDS011;15006;48.584;9.186;2023-04-24T02:19:56;1.75;;;0.60;;
27566;SDS011;15006;48.584;9.186;2023-04-24T02:22:22;1.08;;;0.40;;
27566;SDS011;15006;48.584;9.186;2023-04-24T02:24:48;0.50;;;0.50;;
27566;SDS011;15006;48.584;9.186;2023-04-24T02:27:14;2.35;;;0.40;;
27566;SDS011;15006;48.584;9.186;2023-04-24T02:29:40;0.40;;;0.40;;
27566;SDS011;15006;48.584;9.186;2023-04-24T02:32:06;0.60;;;0.40;;
27566;SDS011;15006;48.584;9.186;2023-04-24T02:34:36;0.77;;;0.50;;
27566;SDS011;15006;48.584;9.186;2023-04-24T02:37:03;0.50;;;0.50;;
27566;SDS011;15006;48.584;9.186;2023-04-24T02:39:29;0.73;;;0.50;;
27566;SDS011;15006;48.584;9.186;2023-04-24T02:41:55;0.57;;;0.40;;
27566;SDS011;15006;48.584;9.186;2023-04-24T02:44:21;0.52;;;0.50;;
27566;SDS011;15006;48.584;9.186;2023-04-24T02:46:47;0.77;;;0.68;;
27566;SDS011;15006;48.584;9.186;2023-04-24T02:49:13;0.65;;;0.40;;
27566;SDS011;15006;48.584;9.186;2023-04-24T02:51:39;1.00;;;0.73;;
27566;SDS011;15006;48.584;9.186;2023-04-24T02:54:09;1.77;;;0.63;;
27566;SDS011;15006;48.584;9.186;2023-04-24T02:56:36;0.60;;;0.60;;
27566;SDS011;15006;48.584;9.186;2023-04-24T02:59:02;2.33;;;0.55;;
27566;SDS011;15006;48.584;9.186;2023-04-24T03:01:28;0.73;;;0.60;;
27566;SDS011;15006;48.584;9.186;2023-04-24T03:03:55;1.20;;;0.82;;
27566;SDS011;15006;48.584;9.186;2023-04-24T03:06:20;2.17;;;0.50;;
27566;SDS011;15006;48.584;9.186;2023-04-24T03:08:47;0.90;;;0.75;;
27566;SDS011;15006;48.584;9.186;2023-04-24T03:11:13;0.65;;;0.63;;
27566;SDS011;15006;48.584;9.186;2023-04-24T03:13:38;0.80;;;0.40;;
27566;SDS011;15006;48.584;9.186;2023-04-24T03:16:04;0.50;;;0.50;;
27566;SDS011;15006;48.584;9.186;2023-04-24T03:18:31;1.42;;;0.70;;
27566;SDS011;15006;48.584;9.186;2023-04-24T03:20:57;1.15;;;0.50;;
27566;SDS011;15006;48.584;9.186;2023-04-24T03:23:22;2.25;;;0.70;;
27566;SDS011;15006;48.584;9.186;2023-04-24T03:25:48;1.33;;;0.70;;
27566;SDS011;15006;48.584;9.186;2023-04-24T03:28:14;0.95;;;0.88;;
27566;SDS011;15006;48.584;9.186;2023-04-24T03:30:40;0.88;;;0.77;;
27566;SDS011;15006;48.584;9.186;2023-04-24T03:33:06;1.00;;;0.63;;
27566;SDS011;15006;48.584;9.186;2023-04-24T03:35:32;0.93;;;0.75;;
27566;SDS011;15006;48.584;9.186;2023-04-24T03:37:59;0.75;;;0.50;;
27566;SDS011;15006;48.584;9.186;2023-04-24T03:40:25;0.40;;;0.40;;
27566;SDS011;15006;48.584;9.186;2023-04-24T03:42:51;0.95;;;0.60;;
27566;SDS011;15006;48.584;9.186;2023-04-24T03:45:17;0.50;;;0.50;;
27566;SDS011;15006;48.584;9.186;2023-04-24T03:47:42;1.73;;;0.82;;
27566;SDS011;15006;48.584;9.186;2023-04-24T03:50:09;2.08;;;0.80;;
27566;SDS011;15006;48.584;9.186;2023-04-24T03:52:35;1.15;;;0.80;;
27566;SDS011;15006;48.584;9.186;2023-04-24T03:55:01;0.90;;;0.77;;
27566;SDS011;15006;48.584;9.186;2023-04-24T03:57:28;1.02;;;1.00;;
27566;SDS011;15006;48.584;9.186;2023-04-24T03:59:54;0.47;;;0.45;;
27566;SDS011;15006;48.584;9.186;2023-04-24T04:02:20;0.70;;;0.70;;
27566;SDS011;15006;48.584;9.186;2023-04-24T04:04:46;5.45;;;0.73;;
27566;SDS011;15006;48.584;9.186;2023-04-24T04:07:12;1.42;;;0.70;;
27566;SDS011;15006;48.584;9.186;2023-04-24T04:09:38;0.57;;;0.40;;
27566;SDS011;15006;48.584;9.186;2023-04-24T04:12:04;1.67;;;0.60;;
27566;SDS011;15006;48.584;9.186;2023-04-24T04:14:30;1.50;;;0.70;;
27566;SDS011;15006;48.584;9.186;2023-04-24T04:16:56;0.73;;;0.60;;
27566;SDS011;15006;48.584;9.186;2023-04-24T04:19:22;1.42;;;0.60;;
27566;SDS011;15006;48.584;9.186;2023-04-24T04:21:48;2.05;;;0.68;;
27566;SDS011;15006;48.584;9.186;2023-04-24T04:24:18;2.45;;;0.52;;
27566;SDS011;15006;48.584;9.186;2023-04-24T04:26:46;2.97;;;0.70;;
27566;SDS011;15006;48.584;9.186;2023-04-24T04:29:12;1.23;;;0.70;;
27566;SDS011;15006;48.584;9.186;2023-04-24T04:31:39;1.20;;;0.70;;
27566;SDS011;15006;48.584;9.186;2023-04-24T04:34:05;8.13;;;1.00;;
27566;SDS011;15006;48.584;9.186;2023-04-24T04:36:33;0.50;;;0.50;;
27566;SDS011;15006;48.584;9.186;2023-04-24T04:39:02;0.73;;;0.63;;
27566;SDS011;15006;48.584;9.186;2023-04-24T04:41:29;2.28;;;0.60;;
27566;SDS011;15006;48.584;9.186;2023-04-24T04:43:55;0.70;;;0.55;;
27566;SDS011;15006;48.584;9.186;2023-04-24T04:46:23;0.80;;;0.65;;
27566;SDS011;15006;48.584;9.186;2023-04-24T04:48:52;1.20;;;0.60;;
27566;SDS011;15006;48.584;9.186;2023-04-24T04:51:18;1.73;;;0.70;;
27566;SDS011;15006;48.584;9.186;2023-04-24T04:53:44;2.15;;;0.60;;
27566;SDS011;15006;48.584;9.186;2023-04-24T04:56:10;0.68;;;0.60;;
27566;SDS011;15006;48.584;9.186;2023-04-24T04:58:36;2.28;;;1.00;;
27566;SDS011;15006;48.584;9.186;2023-04-24T05:01:02;1.33;;;0.60;;
27566;SDS011;15006;48.584;9.186;2023-04-24T05:03:28;1.65;;;0.80;;
27566;SDS011;15006;48.584;9.186;2023-04-24T05:05:54;2.35;;;0.73;;
27566;SDS011;15006;48.584;9.186;2023-04-24T05:08:20;0.50;;;0.50;;
27566;SDS011;15006;48.584;9.186;2023-04-24T05:10:46;0.75;;;0.70;;
27566;SDS011;15006;48.584;9.186;2023-04-24T05:13:12;0.63;;;0.63;;
27566;SDS011;15006;48.584;9.186;2023-04-24T05:15:38;1.98;;;0.75;;
27566;SDS011;15006;48.584;9.186;2023-04-24T05:18:04;1.40;;;0.50;;
27566;SDS011;15006;48.584;9.186;2023-04-24T05:20:30;1.77;;;0.90;;
27566;SDS011;15006;48.584;9.186;2023-04-24T05:22:56;0.55;;;0.55;;
27566;SDS011;15006;48.584;9.186;2023-04-24T05:25:22;1.02;;;0.60;;
27566;SDS011;15006;48.584;9.186;2023-04-24T05:28:01;1.95;;;0.70;;
27566;SDS011;15006;48.584;9.186;2023-04-24T05:30:28;1.83;;;0.60;;
27566;SDS011;15006;48.584;9.186;2023-04-24T05:32:54;3.47;;;0.80;;
27566;SDS011;15006;48.584;9.186;2023-04-24T05:35:20;0.60;;;0.60;;
27566;SDS011;15006;48.584;9.186;2023-04-24T05:37:46;0.80;;;0.60;;
27566;SDS011;15006;48.584;9.186;2023-04-24T05:40:12;1.50;;;0.80;;
27566;SDS011;15006;48.584;9.186;2023-04-24T05:42:38;2.70;;;1.00;;
27566;SDS011;15006;48.584;9.186;2023-04-24T05:45:05;1.20;;;0.82;;
27566;SDS011;15006;48.584;9.186;2023-04-24T05:47:32;1.30;;;1.00;;
27566;SDS011;15006;48.584;9.186;2023-04-24T05:49:58;1.67;;;0.82;;
27566;SDS011;15006;48.584;9.186;2023-04-24T05:52:24;2.42;;;1.23;;
27566;SDS011;15006;48.584;9.186;2023-04-24T05:54:50;3.92;;;1.73;;
27566;SDS011;15006;48.584;9.186;2023-04-24T05:57:16;2.15;;;1.33;;
27566;SDS011;15006;48.584;9.186;2023-04-24T05:59:42;1.60;;;0.90;;
27566;SDS011;15006;48.584;9.186;2023-04-24T06:02:08;1.10;;;1.10;;
27566;SDS011;15006;48.584;9.186;2023-04-24T06:04:34;1.58;;;1.45;;
27566;SDS011;15006;48.584;9.186;2023-04-24T06:07:00;1.20;;;1.10;;
27566;SDS011;15006;48.584;9.186;2023-04-24T06:09:27;1.35;;;1.25;;
27566;SDS011;15006;48.584;9.186;2023-04-24T06:11:53;1.60;;;1.50;;
27566;SDS011;15006;48.584;9.186;2023-04-24T06:14:19;2.65;;;1.17;;
27566;SDS011;15006;48.584;9.186;2023-04-24T06:16:45;1.80;;;1.65;;
27566;SDS011;15006;48.584;9.186;2023-04-24T06:19:11;4.82;;;1.40;;
27566;SDS011;15006;48.584;9.186;2023-04-24T06:21:37;1.40;;;1.30;;
27566;SDS011;15006;48.584;9.186;2023-04-24T06:24:03;1.52;;;1.42;;
27566;SDS011;15006;48.584;9.186;2023-04-24T06:26:32;1.50;;;1.40;;
27566;SDS011;15006;48.584;9.186;2023-04-24T06:28:58;1.58;;;1.35;;
27566;SDS011;15006;48.584;9.186;2023-04-24T06:31:25;4.93;;;1.40;;
27566;SDS011;15006;48.584;9.186;2023-04-24T06:33:51;1.88;;;1.70;;
27566;SDS011;15006;48.584;9.186;2023-04-24T06:36:17;1.40;;;1.30;;
27566;SDS011;15006;48.584;9.186;2023-04-24T06:38:43;2.47;;;1.17;;
27566;SDS011;15006;48.584;9.186;2023-04-24T06:41:09;2.03;;;1.85;;
27566;SDS011;15006;48.584;9.186;2023-04-24T06:43:36;1.58;;;1.27;;
27566;SDS011;15006;48.584;9.186;2023-04-24T06:46:02;9.40;;;2.30;;
27566;SDS011;15006;48.584;9.186;2023-04-24T06:48:28;1.63;;;1.52;;
27566;SDS011;15006;48.584;9.186;2023-04-24T06:50:54;1.60;;;1.35;;
27566;SDS011;15006;48.584;9.186;2023-04-24T06:53:20;1.38;;;1.38;;
27566;SDS011;15006;48.584;9.186;2023-04-24T06:55:47;1.38;;;1.30;;
27566;SDS011;15006;48.584;9.186;2023-04-24T06:58:13;1.23;;;1.23;;
27566;SDS011;15006;48.584;9.186;2023-04-24T07:00:40;1.73;;;1.38;;
27566;SDS011;15006;48.584;9.186;2023-04-24T07:03:06;4.10;;;1.50;;
27566;SDS011;15006;48.584;9.186;2023-04-24T07:05:32;1.30;;;1.20;;
27566;SDS011;15006;48.584;9.186;2023-04-24T07:08:00;1.40;;;1.30;;
27566;SDS011;15006;48.584;9.186;2023-04-24T07:10:27;3.40;;;1.30;;
27566;SDS011;15006;48.584;9.186;2023-04-24T07:12:54;2.20;;;1.23;;
27566;SDS011;15006;48.584;9.186;2023-04-24T07:15:21;2.38;;;1.38;;
27566;SDS011;15006;48.584;9.186;2023-04-24T07:17:48;1.25;;;1.25;;
27566;SDS011;15006;48.584;9.186;2023-04-24T07:20:15;1.95;;;1.20;;
27566;SDS011;15006;48.584;9.186;2023-04-24T07:22:41;1.65;;;1.55;;
27566;SDS011;15006;48.584;9.186;2023-04-24T07:25:08;1.50;;;1.40;;
27566;SDS011;15006;48.584;9.186;2023-04-24T07:27:35;1.20;;;1.20;;
27566;SDS011;15006;48.584;9.186;2023-04-24T07:30:01;7.80;;;1.58;;
27566;SDS011;15006;48.584;9.186;2023-04-24T07:32:32;1.23;;;1.13;;
27566;SDS011;15006;48.584;9.186;2023-04-24T07:34:58;1.52;;;1.42;;
27566;SDS011;15006;48.584;9.186;2023-04-24T07:37:24;2.20;;;1.20;;
27566;SDS011;15006;48.584;9.186;2023-04-24T07:39:50;2.10;;;1.38;;
27566;SDS011;15006;48.584;9.186;2023-04-24T07:42:16;2.08;;;0.80;;
27566;SDS011;15006;48.584;9.186;2023-04-24T07:44:42;0.93;;;0.93;;
27566;SDS011;15006;48.584;9.186;2023-04-24T07:47:08;2.60;;;0.98;;
27566;SDS011;15006;48.584;9.186;2023-04-24T07:49:34;1.02;;;0.70;;
27566;SDS011;15006;48.584;9.186;2023-04-24T07:52:00;0.70;;;0.70;;
27566;SDS011;15006;48.584;9.186;2023-04-24T07:54:28;1.08;;;0.82;;
27566;SDS011;15006;48.584;9.186;2023-04-24T07:56:54;1.27;;;0.90;;
27566;SDS011;15006;48.584;9.186;2023-04-24T07:59:21;0.90;;;0.90;;
27566;SDS011;15006;48.584;9.186;2023-04-24T08:01:47;1.05;;;1.05;;
27566;SDS011;15006;48.584;9.186;2023-04-24T08:04:12;1.70;;;1.10;;
27566;SDS011;15006;48.584;9.186;2023-04-24T08:06:38;1.08;;;1.00;;
27566;SDS011;15006;48.584;9.186;2023-04-24T08:09:05;0.90;;;0.90;;
27566;SDS011;15006;48.584;9.186;2023-04-24T08:11:31;0.80;;;0.80;;
27566;SDS011;15006;48.584;9.186;2023-04-24T08:13:57;1.25;;;0.80;;
27566;SDS011;15006;48.584;9.186;2023-04-24T08:16:23;4.88;;;1.60;;
27566;SDS011;15006;48.584;9.186;2023-04-24T08:18:50;0.80;;;0.80;;
27566;SDS011;15006;48.584;9.186;2023-04-24T08:21:18;1.08;;;0.98;;
27566;SDS011;15006;48.584;9.186;2023-04-24T08:23:45;1.10;;;1.00;;
27566;SDS011;15006;48.584;9.186;2023-04-24T08:26:12;2.42;;;1.10;;
27566;SDS011;15006;48.584;9.186;2023-04-24T08:28:38;1.08;;;1.00;;
27566;SDS011;15006;48.584;9.186;2023-04-24T08:31:04;1.00;;;1.00;;
27566;SDS011;15006;48.584;9.186;2023-04-24T08:33:30;2.28;;;1.00;;
27566;SDS011;15006;48.584;9.186;2023-04-24T08:36:08;1.13;;;1.02;;
27566;SDS011;15006;48.584;9.186;2023-04-24T08:38:34;1.20;;;1.10;;
27566;SDS011;15006;48.584;9.186;2023-04-24T08:41:01;1.90;;;1.10;;
27566;SDS011;15006;48.584;9.186;2023-04-24T08:43:27;2.15;;;0.90;;
27566;SDS011;15006;48.584;9.186;2023-04-24T08:45:55;2.63;;;1.20;;
27566;SDS011;15006;48.584;9.186;2023-04-24T08:48:22;3.75;;;1.13;;
27566;SDS011;15006;48.584;9.186;2023-04-24T08:50:50;0.93;;;0.93;;
27566;SDS011;15006;48.584;9.186;2023-04-24T08:53:16;1.40;;;1.30;;
27566;SDS011;15006;48.584;9.186;2023-04-24T08:55:44;2.67;;;1.10;;
27566;SDS011;15006;48.584;9.186;2023-04-24T08:58:13;3.47;;;1.20;;
27566;SDS011;15006;48.584;9.186;2023-04-24T09:00:41;1.27;;;1.05;;
27566;SDS011;15006;48.584;9.186;2023-04-24T09:03:15;1.20;;;1.10;;
27566;SDS011;15006;48.584;9.186;2023-04-24T09:05:46;2.88;;;1.08;;
27566;SDS011;15006;48.584;9.186;2023-04-24T09:08:14;4.03;;;1.15;;
27566;SDS011;15006;48.584;9.186;2023-04-24T09:10:43;1.10;;;1.00;;
27566;SDS011;15006;48.584;9.186;2023-04-24T09:13:09;1.05;;;0.95;;
27566;SDS011;15006;48.584;9.186;2023-04-24T09:15:36;1.50;;;1.00;;
27566;SDS011;15006;48.584;9.186;2023-04-24T09:18:04;1.42;;;0.80;;
27566;SDS011;15006;48.584;9.186;2023-04-24T09:20:30;3.88;;;1.10;;
27566;SDS011;15006;48.584;9.186;2023-04-24T09:22:57;0.90;;;0.90;;
27566;SDS011;15006;48.584;9.186;2023-04-24T09:25:33;1.75;;;1.05;;
27566;SDS011;15006;48.584;9.186;2023-04-24T09:28:03;1.27;;;1.05;;
27566;SDS011;15006;48.584;9.186;2023-04-24T09:30:31;1.13;;;0.80;;
27566;SDS011;15006;48.584;9.186;2023-04-24T09:33:10;1.48;;;0.98;;
27566;SDS011;15006;48.584;9.186;2023-04-24T09:35:41;1.10;;;1.00;;
27566;SDS011;15006;48.584;9.186;2023-04-24T09:38:08;1.42;;;1.20;;
27566;SDS011;15006;48.584;9.186;2023-04-24T09:40:35;1.30;;;1.17;;
27566;SDS011;15006;48.584;9.186;2023-04-24T09:43:01;2.13;;;1.58;;
27566;SDS011;15006;48.584;9.186;2023-04-24T09:45:28;1.13;;;1.00;;
27566;SDS011;15006;48.584;9.186;2023-04-24T09:48:01;0.80;;;0.80;;
27566;SDS011;15006;48.584;9.186;2023-04-24T09:50:29;0.80;;;0.77;;
27566;SDS011;15006;48.584;9.186;2023-04-24T09:53:03;0.93;;;0.90;;
27566;SDS011;15006;48.584;9.186;2023-04-24T09:55:35;1.17;;;0.90;;
27566;SDS011;15006;48.584;9.186;2023-04-24T09:58:07;0.77;;;0.77;;
27566;SDS011;15006;48.584;9.186;2023-04-24T10:00:33;0.70;;;0.70;;
27566;SDS011;15006;48.584;9.186;2023-04-24T10:03:00;5.55;;;1.10;;
27566;SDS011;15006;48.584;9.186;2023-04-24T10:05:29;1.20;;;1.00;;
27566;SDS011;15006;48.584;9.186;2023-04-24T10:10:38;1.13;;;1.00;;
27566;SDS011;15006;48.584;9.186;2023-04-24T10:13:09;1.13;;;0.82;;
27566;SDS011;15006;48.584;9.186;2023-04-24T10:15:37;2.47;;;0.70;;
27566;SDS011;15006;48.584;9.186;2023-04-24T10:18:05;1.05;;;0.80;;
27566;SDS011;15006;48.584;9.186;2023-04-24T10:20:32;0.70;;;0.70;;
27566;SDS011;15006;48.584;9.186;2023-04-24T10:23:00;2.25;;;0.75;;
27566;SDS011;15006;48.584;9.186;2023-04-24T10:25:28;2.08;;;0.80;;
27566;SDS011;15006;48.584;9.186;2023-04-24T10:27:56;2.35;;;0.70;;
27566;SDS011;15006;48.584;9.186;2023-04-24T10:30:34;0.50;;;0.50;;
27566;SDS011;15006;48.584;9.186;2023-04-24T10:33:01;1.10;;;0.70;;
27566;SDS011;15006;48.584;9.186;2023-04-24T10:35:37;0.82;;;0.60;;
27566;SDS011;15006;48.584;9.186;2023-04-24T10:38:08;0.68;;;0.68;;
27566;SDS011;15006;48.584;9.186;2023-04-24T10:40:37;0.57;;;0.57;;
27566;SDS011;15006;48.584;9.186;2023-04-24T10:43:04;1.30;;;0.70;;
27566;SDS011;15006;48.584;9.186;2023-04-24T10:45:33;1.30;;;0.60;;
27566;SDS011;15006;48.584;9.186;2023-04-24T10:48:00;1.00;;;0.50;;
27566;SDS011;15006;48.584;9.186;2023-04-24T10:50:51;1.27;;;0.65;;
27566;SDS011;15006;48.584;9.186;2023-04-24T10:53:19;1.95;;;0.70;;
27566;SDS011;15006;48.584;9.186;2023-04-24T10:55:52;1.07;;;0.50;;
27566;SDS011;15006;48.584;9.186;2023-04-24T10:58:44;1.70;;;0.90;;
27566;SDS011;15006;48.584;9.186;2023-04-24T11:04:02;1.13;;;0.50;;
27566;SDS011;15006;48.584;9.186;2023-04-24T11:06:33;0.95;;;0.80;;
27566;SDS011;15006;48.584;9.186;2023-04-24T11:09:02;1.58;;;0.80;;
27566;SDS011;15006;48.584;9.186;2023-04-24T11:11:33;0.70;;;0.70;;
27566;SDS011;15006;48.584;9.186;2023-04-24T11:14:03;0.93;;;0.80;;
27566;SDS011;15006;48.584;9.186;2023-04-24T11:19:20;1.13;;;0.88;;
27566;SDS011;15006;48.584;9.186;2023-04-24T11:21:57;1.85;;;0.90;;
27566;SDS011;15006;48.584;9.186;2023-04-24T11:32:24;0.80;;;0.80;;
27566;SDS011;15006;48.584;9.186;2023-04-24T11:35:19;0.98;;;0.52;;
27566;SDS011;15006;48.584;9.186;2023-04-24T11:37:50;1.58;;;0.70;;
27566;SDS011;15006;48.584;9.186;2023-04-24T11:40:20;0.60;;;0.60;;
27566;SDS011;15006;48.584;9.186;2023-04-24T11:42:51;0.57;;;0.57;;
27566;SDS011;15006;48.584;9.186;2023-04-24T11:45:24;0.82;;;0.82;;
27566;SDS011;15006;48.584;9.186;2023-04-24T11:47:56;1.48;;;0.68;;
27566;SDS011;15006;48.584;9.186;2023-04-24T11:50:25;2.05;;;0.70;;
27566;SDS011;15006;48.584;9.186;2023-04-24T11:52:53;0.82;;;0.77;;
27566;SDS011;15006;48.584;9.186;2023-04-24T11:57:46;0.77;;;0.77;;
27566;SDS011;15006;48.584;9.186;2023-04-24T12:00:19;1.85;;;0.52;;
27566;SDS011;15006;48.584;9.186;2023-04-24T12:02:47;1.33;;;0.65;;
27566;SDS011;15006;48.584;9.186;2023-04-24T12:05:24;1.83;;;0.77;;
27566;SDS011;15006;48.584;9.186;2023-04-24T12:07:52;1.95;;;0.68;;
27566;SDS011;15006;48.584;9.186;2023-04-24T12:10:20;1.13;;;0.93;;
27566;SDS011;15006;48.584;9.186;2023-04-24T12:12:52;0.80;;;0.80;;
27566;SDS011;15006;48.584;9.186;2023-04-24T12:15:19;0.80;;;0.80;;
27566;SDS011;15006;48.584;9.186;2023-04-24T12:17:46;1.33;;;0.80;;
27566;SDS011;15006;48.584;9.186;2023-04-24T12:20:13;0.75;;;0.75;;
27566;SDS011;15006;48.584;9.186;2023-04-24T12:22:47;1.30;;;0.70;;
27566;SDS011;15006;48.584;9.186;2023-04-24T12:25:22;0.50;;;0.50;;
27566;SDS011;15006;48.584;9.186;2023-04-24T12:27:55;0.60;;;0.60;;
27566;SDS011;15006;48.584;9.186;2023-04-24T12:30:44;0.55;;;0.55;;
27566;SDS011;15006;48.584;9.186;2023-04-24T12:33:20;1.50;;;0.45;;
27566;SDS011;15006;48.584;9.186;2023-04-24T12:35:47;0.73;;;0.73;;
27566;SDS011;15006;48.584;9.186;2023-04-24T12:38:21;0.70;;;0.70;;
27566;SDS011;15006;48.584;9.186;2023-04-24T12:41:01;2.47;;;0.60;;
27566;SDS011;15006;48.584;9.186;2023-04-24T12:43:51;0.60;;;0.60;;
27566;SDS011;15006;48.584;9.186;2023-04-24T12:46:18;2.42;;;0.80;;
27566;SDS011;15006;48.584;9.186;2023-04-24T12:48:44;0.90;;;0.90;;
27566;SDS011;15006;48.584;9.186;2023-04-24T12:51:10;1.45;;;1.00;;
27566;SDS011;15006;48.584;9.186;2023-04-24T12:53:36;1.95;;;1.20;;
27566;SDS011;15006;48.584;9.186;2023-04-24T12:56:02;0.88;;;0.88;;
27566;SDS011;15006;48.584;9.186;2023-04-24T12:58:28;1.20;;;0.90;;
27566;SDS011;15006;48.584;9.186;2023-04-24T13:00:54;1.00;;;0.90;;
27566;SDS011;15006;48.584;9.186;2023-04-24T13:03:20;1.27;;;1.15;;
27566;SDS011;15006;48.584;9.186;2023-04-24T13:05:47;4.78;;;1.10;;
27566;SDS011;15006;48.584;9.186;2023-04-24T13:08:13;0.93;;;0.80;;
27566;SDS011;15006;48.584;9.186;2023-04-24T13:10:39;0.93;;;0.93;;
27566;SDS011;15006;48.584;9.186;2023-04-24T13:13:06;0.80;;;0.75;;
27566;SDS011;15006;48.584;9.186;2023-04-24T13:15:32;0.93;;;0.80;;
27566;SDS011;15006;48.584;9.186;2023-04-24T13:17:58;1.35;;;1.00;;
27566;SDS011;15006;48.584;9.186;2023-04-24T13:20:25;1.20;;;1.10;;
27566;SDS011;15006;48.584;9.186;2023-04-24T13:22:51;1.10;;;0.85;;
27566;SDS011;15006;48.584;9.186;2023-04-24T13:25:17;0.80;;;0.80;;
27566;SDS011;15006;48.584;9.186;2023-04-24T13:27:44;1.10;;;1.00;;
27566;SDS011;15006;48.584;9.186;2023-04-24T13:30:10;1.13;;;1.02;;
27566;SDS011;15006;48.584;9.186;2023-04-24T13:32:37;1.50;;;1.00;;
27566;SDS011;15006;48.584;9.186;2023-04-24T13:35:03;3.45;;;1.80;;
27566;SDS011;15006;48.584;9.186;2023-04-24T13:37:31;1.00;;;0.98;;
27566;SDS011;15006;48.584;9.186;2023-04-24T13:39:57;1.15;;;1.10;;
27566;SDS011;15006;48.584;9.186;2023-04-24T13:42:23;1.08;;;1.05;;
27566;SDS011;15006;48.584;9.186;2023-04-24T13:44:49;1.25;;;1.15;;
27566;SDS011;15006;48.584;9.186;2023-04-24T13:47:16;2.85;;;1.00;;
27566;SDS011;15006;48.584;9.186;2023-04-24T13:49:42;1.25;;;0.95;;
27566;SDS011;15006;48.584;9.186;2023-04-24T13:52:08;1.15;;;1.05;;
27566;SDS011;15006;48.584;9.186;2023-04-24T13:54:35;1.10;;;1.00;;
27566;SDS011;15006;48.584;9.186;2023-04-24T13:57:02;1.15;;;0.80;;
27566;SDS011;15006;48.584;9.186;2023-04-24T13:59:29;1.40;;;1.00;;
27566;SDS011;15006;48.584;9.186;2023-04-24T14:01:55;1.10;;;1.00;;
27566;SDS011;15006;48.584;9.186;2023-04-24T14:04:21;0.95;;;0.90;;
27566;SDS011;15006;48.584;9.186;2023-04-24T14:06:47;1.65;;;1.20;;
27566;SDS011;15006;48.584;9.186;2023-04-24T14:09:13;1.50;;;1.30;;
27566;SDS011;15006;48.584;9.186;2023-04-24T14:11:39;0.93;;;0.90;;
27566;SDS011;15006;48.584;9.186;2023-04-24T14:14:05;1.63;;;1.00;;
27566;SDS011;15006;48.584;9.186;2023-04-24T14:16:31;1.50;;;0.90;;
27566;SDS011;15006;48.584;9.186;2023-04-24T14:18:57;1.40;;;1.30;;
27566;SDS011;15006;48.584;9.186;2023-04-24T14:21:23;1.67;;;1.20;;
27566;SDS011;15006;48.584;9.186;2023-04-24T14:23:49;1.20;;;1.10;;
27566;SDS011;15006;48.584;9.186;2023-04-24T14:26:16;1.75;;;1.20;;
27566;SDS011;15006;48.584;9.186;2023-04-24T14:28:42;1.13;;;1.13;;
27566;SDS011;15006;48.584;9.186;2023-04-24T14:31:08;1.35;;;1.25;;
27566;SDS011;15006;48.584;9.186;2023-04-24T14:33:34;1.20;;;1.20;;
27566;SDS011;15006;48.584;9.186;2023-04-24T14:36:00;1.50;;;1.27;;
27566;SDS011;15006;48.584;9.186;2023-04-24T14:38:28;1.00;;;1.00;;
27566;SDS011;15006;48.584;9.186;2023-04-24T14:40:55;1.48;;;1.38;;
27566;SDS011;15006;48.584;9.186;2023-04-24T14:43:21;1.15;;;1.13;;
27566;SDS011;15006;48.584;9.186;2023-04-24T14:45:47;1.50;;;1.40;;
27566;SDS011;15006;48.584;9.186;2023-04-24T14:48:13;2.10;;;1.55;;
27566;SDS011;15006;48.584;9.186;2023-04-24T14:50:41;1.17;;;1.08;;
27566;SDS011;15006;48.584;9.186;2023-04-24T14:53:07;1.23;;;1.13;;
27566;SDS011;15006;48.584;9.186;2023-04-24T14:55:33;0.93;;;0.90;;
27566;SDS011;15006;48.584;9.186;2023-04-24T14:58:02;1.00;;;1.00;;
27566;SDS011;15006;48.584;9.186;2023-04-24T15:00:28;2.58;;;1.10;;
27566;SDS011;15006;48.584;9.186;2023-04-24T15:02:55;2.35;;;1.02;;
27566;SDS011;15006;48.584;9.186;2023-04-24T15:05:21;2.47;;;1.33;;
27566;SDS011;15006;48.584;9.186;2023-04-24T15:07:47;1.58;;;1.00;;